Portada
METAR-TAF:

METAR-TAF

Aeropuertos :

Russellville Regional Airport

Russellville, Arkansas, Estados Unidos

latitud: 35-15-32N, longitud: 093-05-36W, altitud: 123 m

Observación

El informe se hizo hace 15 minutos, a las 00:53 UTC
Viento 4 kt del oeste-suroeste
Temperatura 12°C
Humedad 38%
Presión 1023 hPa
Visibilidad: 16.1 km
Cielo despejado

METAR: KRUE 290053Z AUTO 24004KT 10SM CLR 12/M02 A3021 RMK AO2 SLP229 T01171022

Hora: 19:08 (01:08 UTC)


TAF: falta

Observaciones y pronósticos meteorológicos de más de 4000 aeropuertos (mensajes METAR y TAF).

Los puntos amarillos y rojos representan las estaciones disponibles.

Ponga el ratón en el punto deseado para ver el nombre de la estación.

Haga clic para ver las observaciones y los pronósticos meteorológicos.

Para cambiar el mapa : haga clic en los botones verdes con una cruz de color negro para hacer un zoom, en el botón verde con un guión para alejar o en las flechas verdes para mapas adyacentes.


METAR-TAF: